sensor_id;sensor_type;location;lat;lon;timestamp;pressure;altitude;pressure_sealevel;temperature;humidity
63622;BME280;49770;47.544;19.074;2023-05-08T04:13:17;100866.84;;;9.10;100.00
63622;BME280;49770;47.544;19.074;2023-05-08T04:16:27;100861.31;;;9.16;100.00
63622;BME280;49770;47.544;19.074;2023-05-08T04:19:46;100866.34;;;9.24;100.00
63622;BME280;49770;47.544;19.074;2023-05-08T04:22:57;100874.94;;;9.31;100.00
63622;BME280;49770;47.544;19.074;2023-05-08T04:26:06;100871.84;;;9.43;100.00
63622;BME280;49770;47.544;19.074;2023-05-08T04:29:13;100876.91;;;9.50;100.00
63622;BME280;49770;47.544;19.074;2023-05-08T04:32:22;100886.62;;;9.49;98.95
63622;BME280;49770;47.544;19.074;2023-05-08T04:35:33;100893.59;;;9.52;95.09
63622;BME280;49770;47.544;19.074;2023-05-08T04:38:40;100899.91;;;9.48;96.30
63622;BME280;49770;47.544;19.074;2023-05-08T04:41:49;100894.53;;;9.51;93.42
63622;BME280;49770;47.544;19.074;2023-05-08T04:44:57;100903.50;;;9.47;92.88
63622;BME280;49770;47.544;19.074;2023-05-08T04:48:05;100907.41;;;9.60;93.66
63622;BME280;49770;47.544;19.074;2023-05-08T04:51:12;100910.72;;;9.67;92.61
63622;BME280;49770;47.544;19.074;2023-05-08T04:54:19;100918.13;;;9.57;93.88
63622;BME280;49770;47.544;19.074;2023-05-08T04:57:26;100926.09;;;9.57;94.32
63622;BME280;49770;47.544;19.074;2023-05-08T05:00:35;100915.22;;;9.65;93.32
63622;BME280;49770;47.544;19.074;2023-05-08T05:03:44;100929.25;;;9.67;93.82
63622;BME280;49770;47.544;19.074;2023-05-08T05:06:51;100932.53;;;9.74;92.54
63622;BME280;49770;47.544;19.074;2023-05-08T05:09:59;100929.81;;;9.75;90.37
63622;BME280;49770;47.544;19.074;2023-05-08T05:13:08;100926.94;;;9.81;89.87
63622;BME280;49770;47.544;19.074;2023-05-08T05:16:17;100937.53;;;9.81;89.44
63622;BME280;49770;47.544;19.074;2023-05-08T05:19:27;100929.63;;;9.80;86.92
63622;BME280;49770;47.544;19.074;2023-05-08T05:22:35;100943.81;;;9.79;87.44
63622;BME280;49770;47.544;19.074;2023-05-08T05:25:44;100933.97;;;9.82;87.87
63622;BME280;49770;47.544;19.074;2023-05-08T05:28:52;100943.62;;;10.07;87.58
63622;BME280;49770;47.544;19.074;2023-05-08T05:32:00;100949.81;;;10.08;87.05
63622;BME280;49770;47.544;19.074;2023-05-08T05:35:09;100955.28;;;10.27;86.99
63622;BME280;49770;47.544;19.074;2023-05-08T05:38:32;100948.28;;;10.24;85.29
63622;BME280;49770;47.544;19.074;2023-05-08T05:41:42;100946.13;;;10.34;85.66
63622;BME280;49770;47.544;19.074;2023-05-08T05:44:49;100962.09;;;10.33;86.17
63622;BME280;49770;47.544;19.074;2023-05-08T05:47:55;100963.31;;;10.24;84.47
63622;BME280;49770;47.544;19.074;2023-05-08T05:51:01;100963.50;;;10.19;84.35
63622;BME280;49770;47.544;19.074;2023-05-08T05:54:07;100954.53;;;10.23;82.17
63622;BME280;49770;47.544;19.074;2023-05-08T05:57:14;100962.34;;;10.27;81.39
63622;BME280;49770;47.544;19.074;2023-05-08T06:00:21;100965.87;;;10.27;81.39
63622;BME280;49770;47.544;19.074;2023-05-08T06:03:28;100976.25;;;10.33;81.25
63622;BME280;49770;47.544;19.074;2023-05-08T06:06:37;100963.38;;;10.46;80.66
63622;BME280;49770;47.544;19.074;2023-05-08T06:09:40;100964.34;;;10.44;80.23
63622;BME280;49770;47.544;19.074;2023-05-08T06:12:45;100963.25;;;10.72;79.05
63622;BME280;49770;47.544;19.074;2023-05-08T06:15:49;100962.75;;;10.84;79.19
63622;BME280;49770;47.544;19.074;2023-05-08T06:18:53;100962.09;;;11.00;77.26
63622;BME280;49770;47.544;19.074;2023-05-08T06:21:59;100964.16;;;11.14;76.69
63622;BME280;49770;47.544;19.074;2023-05-08T06:25:02;100963.13;;;11.18;76.35
63622;BME280;49770;47.544;19.074;2023-05-08T06:28:09;100965.50;;;11.24;75.85
63622;BME280;49770;47.544;19.074;2023-05-08T06:31:16;100966.63;;;11.39;75.21
63622;BME280;49770;47.544;19.074;2023-05-08T06:34:21;100971.00;;;11.61;73.87
63622;BME280;49770;47.544;19.074;2023-05-08T06:37:26;100974.53;;;11.81;74.26
63622;BME280;49770;47.544;19.074;2023-05-08T06:40:32;100975.63;;;11.96;73.80
63622;BME280;49770;47.544;19.074;2023-05-08T06:43:36;100970.53;;;11.91;72.77
63622;BME280;49770;47.544;19.074;2023-05-08T06:46:39;100973.75;;;12.19;72.42
63622;BME280;49770;47.544;19.074;2023-05-08T06:49:42;100967.84;;;12.50;71.51
63622;BME280;49770;47.544;19.074;2023-05-08T06:52:51;100976.84;;;13.55;68.75
63622;BME280;49770;47.544;19.074;2023-05-08T06:55:55;100981.69;;;14.31;64.73
63622;BME280;49770;47.544;19.074;2023-05-08T06:59:04;100982.75;;;13.78;64.29
63622;BME280;49770;47.544;19.074;2023-05-08T07:02:12;100990.50;;;14.33;64.11
63622;BME280;49770;47.544;19.074;2023-05-08T07:05:20;100992.09;;;14.03;63.76
63622;BME280;49770;47.544;19.074;2023-05-08T07:08:25;100990.03;;;14.08;65.26
63622;BME280;49770;47.544;19.074;2023-05-08T07:11:30;100991.62;;;13.79;65.69
63622;BME280;49770;47.544;19.074;2023-05-08T07:14:37;100989.78;;;14.13;65.33
63622;BME280;49770;47.544;19.074;2023-05-08T07:17:43;100982.37;;;14.66;63.61
63622;BME280;49770;47.544;19.074;2023-05-08T07:20:47;100979.72;;;15.13;62.90
63622;BME280;49770;47.544;19.074;2023-05-08T07:23:51;100987.34;;;15.50;57.72
63622;BME280;49770;47.544;19.074;2023-05-08T07:26:56;100984.84;;;15.47;56.75
63622;BME280;49770;47.544;19.074;2023-05-08T07:30:01;100981.34;;;15.61;55.82
63622;BME280;49770;47.544;19.074;2023-05-08T07:33:07;100981.53;;;15.72;55.18
63622;BME280;49770;47.544;19.074;2023-05-08T07:36:12;100978.28;;;15.67;54.45
63622;BME280;49770;47.544;19.074;2023-05-08T07:39:20;100987.72;;;15.44;55.36
63622;BME280;49770;47.544;19.074;2023-05-08T07:42:24;100987.66;;;14.84;55.08
63622;BME280;49770;47.544;19.074;2023-05-08T07:45:28;100987.78;;;15.28;58.58
63622;BME280;49770;47.544;19.074;2023-05-08T07:48:32;100990.47;;;15.42;53.47
63622;BME280;49770;47.544;19.074;2023-05-08T07:51:37;100990.41;;;16.16;53.63
63622;BME280;49770;47.544;19.074;2023-05-08T07:54:42;100995.16;;;16.68;52.51
63622;BME280;49770;47.544;19.074;2023-05-08T07:57:50;100994.78;;;17.81;52.69
63622;BME280;49770;47.544;19.074;2023-05-08T08:00:57;100998.41;;;18.06;52.19
63622;BME280;49770;47.544;19.074;2023-05-08T08:04:06;101000.09;;;18.57;48.14
63622;BME280;49770;47.544;19.074;2023-05-08T08:07:14;100986.94;;;19.26;48.08
63622;BME280;49770;47.544;19.074;2023-05-08T08:10:21;100989.41;;;18.93;50.23
63622;BME280;49770;47.544;19.074;2023-05-08T08:13:25;100994.28;;;19.24;44.25
63622;BME280;49770;47.544;19.074;2023-05-08T08:16:30;100994.50;;;19.68;42.68
63622;BME280;49770;47.544;19.074;2023-05-08T08:19:39;100985.94;;;20.31;44.23
63622;BME280;49770;47.544;19.074;2023-05-08T08:22:47;100986.81;;;20.65;42.33
63622;BME280;49770;47.544;19.074;2023-05-08T08:25:54;100989.91;;;20.60;39.84
63622;BME280;49770;47.544;19.074;2023-05-08T08:29:03;100989.25;;;20.35;42.17
63622;BME280;49770;47.544;19.074;2023-05-08T08:32:09;100978.25;;;20.04;39.96
63622;BME280;49770;47.544;19.074;2023-05-08T08:35:17;100985.34;;;21.05;41.09
63622;BME280;49770;47.544;19.074;2023-05-08T08:38:24;100991.34;;;21.08;37.53
63622;BME280;49770;47.544;19.074;2023-05-08T08:41:32;100985.75;;;21.43;38.82
63622;BME280;49770;47.544;19.074;2023-05-08T08:44:40;100980.88;;;21.58;36.20
63622;BME280;49770;47.544;19.074;2023-05-08T08:47:47;100988.03;;;22.00;35.76
63622;BME280;49770;47.544;19.074;2023-05-08T08:50:58;100984.50;;;21.99;33.81
63622;BME280;49770;47.544;19.074;2023-05-08T08:54:11;100981.88;;;22.19;34.13
63622;BME280;49770;47.544;19.074;2023-05-08T08:57:19;100981.06;;;21.97;34.45
63622;BME280;49770;47.544;19.074;2023-05-08T09:00:29;100987.88;;;21.91;33.96
63622;BME280;49770;47.544;19.074;2023-05-08T09:03:37;100974.56;;;21.26;34.11
63622;BME280;49770;47.544;19.074;2023-05-08T09:06:44;100975.50;;;20.82;34.56
63622;BME280;49770;47.544;19.074;2023-05-08T09:09:49;100965.59;;;22.60;33.42
63622;BME280;49770;47.544;19.074;2023-05-08T09:12:53;100965.75;;;22.98;31.08
63622;BME280;49770;47.544;19.074;2023-05-08T09:15:58;100967.19;;;22.82;30.93
63622;BME280;49770;47.544;19.074;2023-05-08T09:19:03;100963.91;;;24.04;31.17
63622;BME280;49770;47.544;19.074;2023-05-08T09:22:10;100974.56;;;23.00;29.87
63622;BME280;49770;47.544;19.074;2023-05-08T09:25:19;100967.31;;;23.10;30.07
63622;BME280;49770;47.544;19.074;2023-05-08T09:28:24;100966.44;;;24.15;30.12
63622;BME280;49770;47.544;19.074;2023-05-08T09:31:34;100964.16;;;24.39;30.21
63622;BME280;49770;47.544;19.074;2023-05-08T09:34:40;100967.72;;;23.15;31.02
63622;BME280;49770;47.544;19.074;2023-05-08T09:37:44;100969.28;;;23.28;30.53
63622;BME280;49770;47.544;19.074;2023-05-08T09:41:13;100962.94;;;23.95;30.07
63622;BME280;49770;47.544;19.074;2023-05-08T09:44:19;100961.22;;;24.50;28.61
63622;BME280;49770;47.544;19.074;2023-05-08T09:47:24;100954.19;;;24.94;28.30
63622;BME280;49770;47.544;19.074;2023-05-08T09:50:28;100954.34;;;26.83;26.72
63622;BME280;49770;47.544;19.074;2023-05-08T09:53:31;100963.00;;;27.44;24.89
63622;BME280;49770;47.544;19.074;2023-05-08T09:56:38;100962.47;;;28.06;24.43
63622;BME280;49770;47.544;19.074;2023-05-08T09:59:42;100963.81;;;26.37;25.12
63622;BME280;49770;47.544;19.074;2023-05-08T10:02:59;100955.50;;;25.08;28.67
63622;BME280;49770;47.544;19.074;2023-05-08T10:06:12;100949.50;;;24.49;28.65
63622;BME280;49770;47.544;19.074;2023-05-08T10:09:21;100945.87;;;24.77;28.10
63622;BME280;49770;47.544;19.074;2023-05-08T10:12:25;100942.88;;;24.44;28.80
63622;BME280;49770;47.544;19.074;2023-05-08T10:15:29;100942.78;;;23.22;29.71
63622;BME280;49770;47.544;19.074;2023-05-08T10:18:44;100941.00;;;24.44;28.71
63622;BME280;49770;47.544;19.074;2023-05-08T10:21:53;100934.53;;;24.09;28.77
63622;BME280;49770;47.544;19.074;2023-05-08T10:24:59;100935.13;;;24.85;27.99
63622;BME280;49770;47.544;19.074;2023-05-08T10:28:30;100922.97;;;25.16;27.28
63622;BME280;49770;47.544;19.074;2023-05-08T10:31:39;100928.81;;;27.34;25.11
63622;BME280;49770;47.544;19.074;2023-05-08T10:34:58;100927.47;;;28.49;23.46
63622;BME280;49770;47.544;19.074;2023-05-08T10:38:10;100928.97;;;27.32;23.72
63622;BME280;49770;47.544;19.074;2023-05-08T10:41:17;100933.47;;;25.64;25.27
63622;BME280;49770;47.544;19.074;2023-05-08T10:44:26;100917.81;;;26.01;25.13
63622;BME280;49770;47.544;19.074;2023-05-08T10:51:22;100907.34;;;23.91;27.87
63622;BME280;49770;47.544;19.074;2023-05-08T10:54:58;100916.91;;;24.59;25.98
63622;BME280;49770;47.544;19.074;2023-05-08T10:58:12;100904.75;;;24.27;26.55
63622;BME280;49770;47.544;19.074;2023-05-08T11:01:19;100897.31;;;23.45;28.58
63622;BME280;49770;47.544;19.074;2023-05-08T11:04:23;100908.97;;;22.98;28.75
63622;BME280;49770;47.544;19.074;2023-05-08T11:07:52;100903.12;;;22.93;28.41
63622;BME280;49770;47.544;19.074;2023-05-08T11:14:12;100902.09;;;23.89;27.47
63622;BME280;49770;47.544;19.074;2023-05-08T11:17:23;100891.97;;;23.63;28.05
63622;BME280;49770;47.544;19.074;2023-05-08T11:20:38;100887.19;;;22.40;28.76
63622;BME280;49770;47.544;19.074;2023-05-08T11:23:41;100889.78;;;22.52;29.59
63622;BME280;49770;47.544;19.074;2023-05-08T11:26:47;100887.44;;;22.27;30.09
63622;BME280;49770;47.544;19.074;2023-05-08T11:33:28;100884.59;;;22.19;30.02
63622;BME280;49770;47.544;19.074;2023-05-08T11:36:32;100889.62;;;21.20;31.30
63622;BME280;49770;47.544;19.074;2023-05-08T11:39:39;100880.44;;;21.95;31.74
63622;BME280;49770;47.544;19.074;2023-05-08T11:42:44;100875.38;;;22.41;30.00
63622;BME280;49770;47.544;19.074;2023-05-08T11:45:47;100882.66;;;21.70;31.19
63622;BME280;49770;47.544;19.074;2023-05-08T11:48:57;100880.56;;;21.52;32.99
63622;BME280;49770;47.544;19.074;2023-05-08T11:52:03;100874.91;;;21.97;33.10
63622;BME280;49770;47.544;19.074;2023-05-08T11:55:10;100884.13;;;21.53;32.77
63622;BME280;49770;47.544;19.074;2023-05-08T11:58:15;100890.31;;;20.91;33.51
63622;BME280;49770;47.544;19.074;2023-05-08T12:01:20;100873.09;;;21.35;33.29
63622;BME280;49770;47.544;19.074;2023-05-08T12:04:25;100876.84;;;20.80;33.04
63622;BME280;49770;47.544;19.074;2023-05-08T12:07:29;100878.66;;;21.12;33.73
63622;BME280;49770;47.544;19.074;2023-05-08T12:13:50;100871.94;;;21.06;32.89
63622;BME280;49770;47.544;19.074;2023-05-08T12:16:55;100864.37;;;21.21;32.97
63622;BME280;49770;47.544;19.074;2023-05-08T12:23:12;100873.25;;;20.69;32.21
63622;BME280;49770;47.544;19.074;2023-05-08T12:26:17;100871.78;;;20.65;32.49
63622;BME280;49770;47.544;19.074;2023-05-08T12:29:20;100874.88;;;20.28;33.49
63622;BME280;49770;47.544;19.074;2023-05-08T12:32:24;100871.06;;;20.42;33.41
63622;BME280;49770;47.544;19.074;2023-05-08T12:35:31;100867.31;;;20.22;32.22
63622;BME280;49770;47.544;19.074;2023-05-08T12:38:36;100867.13;;;19.90;31.95
63622;BME280;49770;47.544;19.074;2023-05-08T12:41:47;100882.53;;;20.00;32.10
63622;BME280;49770;47.544;19.074;2023-05-08T12:44:52;100874.72;;;19.97;31.76
63622;BME280;49770;47.544;19.074;2023-05-08T12:48:02;100870.03;;;20.54;32.00
63622;BME280;49770;47.544;19.074;2023-05-08T12:51:06;100880.78;;;20.22;31.55
63622;BME280;49770;47.544;19.074;2023-05-08T12:54:11;100878.63;;;19.81;31.30
63622;BME280;49770;47.544;19.074;2023-05-08T12:57:18;100878.91;;;19.32;31.91
63622;BME280;49770;47.544;19.074;2023-05-08T13:00:23;100877.31;;;19.41;32.96
63622;BME280;49770;47.544;19.074;2023-05-08T13:03:31;100881.44;;;20.02;33.64
63622;BME280;49770;47.544;19.074;2023-05-08T13:06:40;100879.00;;;19.88;32.46
63622;BME280;49770;47.544;19.074;2023-05-08T13:09:59;100874.84;;;19.84;32.51
63622;BME280;49770;47.544;19.074;2023-05-08T13:13:07;100874.97;;;19.82;32.26
63622;BME280;49770;47.544;19.074;2023-05-08T13:16:12;100881.72;;;19.65;32.42
63622;BME280;49770;47.544;19.074;2023-05-08T13:19:18;100879.22;;;19.85;33.18
63622;BME280;49770;47.544;19.074;2023-05-08T13:22:53;100876.91;;;20.03;31.52
63622;BME280;49770;47.544;19.074;2023-05-08T13:25:59;100889.78;;;19.65;32.02
63622;BME280;49770;47.544;19.074;2023-05-08T13:29:06;100882.34;;;19.34;32.03
63622;BME280;49770;47.544;19.074;2023-05-08T13:32:12;100882.81;;;19.28;31.87
63622;BME280;49770;47.544;19.074;2023-05-08T13:35:19;100889.03;;;19.29;31.83
63622;BME280;49770;47.544;19.074;2023-05-08T13:38:25;100891.28;;;18.99;32.61
63622;BME280;49770;47.544;19.074;2023-05-08T13:41:31;100893.06;;;19.11;32.14
63622;BME280;49770;47.544;19.074;2023-05-08T13:44:38;100887.00;;;19.32;32.35
63622;BME280;49770;47.544;19.074;2023-05-08T13:47:47;100881.81;;;19.18;32.64
63622;BME280;49770;47.544;19.074;2023-05-08T13:50:54;100880.47;;;19.12;32.30
63622;BME280;49770;47.544;19.074;2023-05-08T13:53:57;100894.69;;;19.25;29.33
63622;BME280;49770;47.544;19.074;2023-05-08T13:57:02;100887.06;;;19.08;27.64
63622;BME280;49770;47.544;19.074;2023-05-08T14:00:12;100881.25;;;18.90;28.92
63622;BME280;49770;47.544;19.074;2023-05-08T14:03:18;100879.81;;;18.97;30.03
63622;BME280;49770;47.544;19.074;2023-05-08T14:06:22;100881.37;;;18.88;29.74
63622;BME280;49770;47.544;19.074;2023-05-08T14:09:29;100873.72;;;19.06;30.06
63622;BME280;49770;47.544;19.074;2023-05-08T14:12:37;100884.03;;;18.77;29.82
63622;BME280;49770;47.544;19.074;2023-05-08T14:15:45;100886.97;;;18.85;29.64
63622;BME280;49770;47.544;19.074;2023-05-08T14:18:53;100879.88;;;18.84;29.66
63622;BME280;49770;47.544;19.074;2023-05-08T14:22:01;100884.19;;;18.86;28.67
63622;BME280;49770;47.544;19.074;2023-05-08T14:25:08;100879.22;;;18.69;28.86
63622;BME280;49770;47.544;19.074;2023-05-08T14:28:17;100875.09;;;18.76;29.72
63622;BME280;49770;47.544;19.074;2023-05-08T14:31:25;100887.75;;;18.63;28.81
63622;BME280;49770;47.544;19.074;2023-05-08T14:34:32;100885.84;;;18.76;28.58
63622;BME280;49770;47.544;19.074;2023-05-08T14:37:40;100897.56;;;18.75;28.33
63622;BME280;49770;47.544;19.074;2023-05-08T14:40:51;100898.19;;;18.67;28.28
63622;BME280;49770;47.544;19.074;2023-05-08T14:44:01;100899.53;;;18.73;28.31
63622;BME280;49770;47.544;19.074;2023-05-08T14:47:08;100892.09;;;18.41;27.97
63622;BME280;49770;47.544;19.074;2023-05-08T14:50:20;100897.16;;;18.57;27.93
63622;BME280;49770;47.544;19.074;2023-05-08T14:53:28;100900.47;;;18.61;27.10
63622;BME280;49770;47.544;19.074;2023-05-08T14:56:36;100896.53;;;18.53;24.89
63622;BME280;49770;47.544;19.074;2023-05-08T15:00:06;100899.44;;;18.50;25.35
63622;BME280;49770;47.544;19.074;2023-05-08T15:03:15;100898.91;;;18.45;24.29
63622;BME280;49770;47.544;19.074;2023-05-08T15:06:24;100903.56;;;18.43;25.44
63622;BME280;49770;47.544;19.074;2023-05-08T15:09:30;100894.72;;;18.29;26.89
63622;BME280;49770;47.544;19.074;2023-05-08T15:12:36;100902.03;;;18.27;26.33
63622;BME280;49770;47.544;19.074;2023-05-08T15:15:45;100900.72;;;18.33;26.09
63622;BME280;49770;47.544;19.074;2023-05-08T15:18:54;100888.88;;;18.36;25.89
63622;BME280;49770;47.544;19.074;2023-05-08T15:22:02;100898.44;;;18.40;26.25
63622;BME280;49770;47.544;19.074;2023-05-08T15:25:10;100895.78;;;18.51;25.24
63622;BME280;49770;47.544;19.074;2023-05-08T15:28:22;100898.25;;;18.54;25.48
63622;BME280;49770;47.544;19.074;2023-05-08T15:31:33;100888.41;;;18.42;26.52
63622;BME280;49770;47.544;19.074;2023-05-08T15:34:38;100893.03;;;18.15;28.03
